Time;durP1;ratioP1;P1;durP2;ratioP2;P2;SDS_P1;SDS_P2;PMS_P1;PMS_P2;Temp;Humidity;BMP_temperature;BMP_pressure;BME280_temperature;BME280_humidity;BME280_pressure;Samples;Min_cycle;Max_cycle;Signal;HPM_P1;HPM_P2
2023/08/10 00:00:08;;;;;;;1.55;0.55;;;14.00;99.90;;;;;;5055055;28;20109;-68
2023/08/10 00:02:34;;;;;;;1.23;0.80;;;14.00;99.90;;;;;;5072032;28;20132;-68
2023/08/10 00:04:59;;;;;;;1.13;0.70;;;14.00;99.90;;;;;;5072033;28;20068;-68
2023/08/10 00:07:25;;;;;;;2.72;1.10;;;14.00;99.90;;;;;;5070841;28;20041;-68
2023/08/10 00:09:51;;;;;;;1.48;0.43;;;14.00;99.90;;;;;;5070294;28;20115;-68
2023/08/10 00:12:17;;;;;;;1.38;1.02;;;14.00;99.90;;;;;;5058319;28;20040;-68
2023/08/10 00:14:42;;;;;;;1.65;0.70;;;13.90;99.90;;;;;;5064587;28;20043;-69
2023/08/10 00:17:08;;;;;;;0.80;0.52;;;14.00;99.90;;;;;;5071548;28;20036;-68
2023/08/10 00:19:34;;;;;;;0.95;0.60;;;13.90;99.90;;;;;;5072041;28;20044;-68
2023/08/10 00:22:00;;;;;;;1.58;0.57;;;14.00;99.90;;;;;;5070799;28;20044;-68
2023/08/10 00:24:25;;;;;;;0.85;0.60;;;13.90;99.90;;;;;;5071427;28;20043;-69
2023/08/10 00:26:51;;;;;;;1.85;0.65;;;13.90;99.90;;;;;;5070498;28;20049;-68
2023/08/10 00:29:17;;;;;;;1.65;1.05;;;13.90;99.90;;;;;;5053817;28;20044;-68
2023/08/10 00:31:43;;;;;;;3.35;0.68;;;14.00;99.90;;;;;;5052043;28;20406;-68
2023/08/10 00:34:09;;;;;;;0.55;0.40;;;13.90;99.90;;;;;;5046004;28;20413;-68
2023/08/10 00:36:36;;;;;;;1.70;0.88;;;14.00;99.90;;;;;;5030368;28;20064;-68
2023/08/10 00:39:02;;;;;;;1.10;0.50;;;14.00;99.90;;;;;;5030952;28;20049;-69
2023/08/10 00:41:28;;;;;;;1.70;0.55;;;13.90;99.90;;;;;;5013789;28;20100;-68
2023/08/10 00:43:54;;;;;;;1.63;0.75;;;13.90;99.90;;;;;;5030588;28;20038;-68
2023/08/10 00:46:20;;;;;;;4.63;0.80;;;13.90;99.90;;;;;;5031359;28;20458;-68
2023/08/10 00:48:46;;;;;;;2.05;0.60;;;13.90;99.90;;;;;;5046973;28;20053;-69
2023/08/10 00:51:12;;;;;;;1.33;0.70;;;13.90;99.90;;;;;;5050137;28;20052;-69
2023/08/10 00:53:39;;;;;;;1.60;0.70;;;13.90;99.90;;;;;;5049675;28;20135;-69
2023/08/10 00:56:06;;;;;;;1.23;0.60;;;13.90;99.90;;;;;;5056986;28;20040;-68
2023/08/10 00:58:32;;;;;;;1.92;0.75;;;13.90;99.90;;;;;;5048741;28;20098;-68
2023/08/10 01:00:58;;;;;;;0.88;0.50;;;13.80;99.90;;;;;;5050942;28;20459;-68
2023/08/10 01:03:24;;;;;;;0.90;0.47;;;13.80;99.90;;;;;;5050137;28;20036;-69
2023/08/10 01:06:02;;;;;;;2.35;1.02;;;13.80;99.90;;;;;;5049471;28;20385;-68
2023/08/10 01:08:50;;;;;;;0.93;0.63;;;13.80;99.90;;;;;;5050328;28;20079;-68
2023/08/10 01:11:30;;;;;;;1.23;0.70;;;13.80;99.90;;;;;;5034938;28;20045;-68
2023/08/10 01:14:08;;;;;;;2.17;0.75;;;13.80;99.90;;;;;;5029600;28;20042;-68
2023/08/10 01:16:39;;;;;;;1.58;0.68;;;13.80;99.90;;;;;;5029764;28;20046;-68
2023/08/10 01:19:18;;;;;;;1.40;0.70;;;13.70;99.90;;;;;;5029599;28;20042;-68
2023/08/10 01:22:05;;;;;;;0.77;0.40;;;13.60;99.90;;;;;;5029735;28;20523;-69
2023/08/10 01:24:36;;;;;;;0.88;0.40;;;13.60;99.90;;;;;;5013166;28;20041;-68
2023/08/10 01:27:03;;;;;;;2.25;0.88;;;13.60;99.90;;;;;;5038595;28;20055;-68
2023/08/10 01:29:29;;;;;;;1.33;0.80;;;13.50;99.90;;;;;;5050658;28;20033;-68
2023/08/10 01:31:55;;;;;;;1.05;0.65;;;13.40;99.90;;;;;;5049304;28;20366;-68
2023/08/10 01:34:21;;;;;;;1.05;0.47;;;13.40;99.90;;;;;;5046183;28;20048;-68
2023/08/10 01:36:47;;;;;;;0.73;0.32;;;13.40;99.90;;;;;;5069093;28;20036;-68
2023/08/10 01:39:13;;;;;;;1.95;0.73;;;13.30;99.90;;;;;;5052186;28;20055;-68
2023/08/10 01:41:38;;;;;;;2.30;0.50;;;13.20;99.90;;;;;;5068468;28;20133;-68
2023/08/10 01:44:06;;;;;;;0.88;0.47;;;13.20;99.90;;;;;;5069033;28;20080;-68
2023/08/10 01:46:36;;;;;;;0.50;0.50;;;13.10;99.90;;;;;;5070170;28;20457;-67
2023/08/10 01:49:07;;;;;;;1.35;0.55;;;13.00;99.90;;;;;;5017849;28;20048;-68
2023/08/10 01:51:35;;;;;;;1.02;0.52;;;13.00;99.90;;;;;;5050189;28;20041;-68
2023/08/10 01:54:03;;;;;;;0.65;0.40;;;12.90;99.90;;;;;;5048537;28;20142;-67
2023/08/10 01:56:29;;;;;;;0.40;0.40;;;12.80;99.90;;;;;;5049207;28;20873;-68
2023/08/10 01:58:55;;;;;;;1.38;0.77;;;12.80;99.90;;;;;;5052711;28;20036;-67
2023/08/10 02:01:21;;;;;;;2.17;0.63;;;12.70;99.90;;;;;;5068312;28;20493;-67
2023/08/10 02:03:50;;;;;;;0.50;0.45;;;12.70;99.90;;;;;;5069838;28;20050;-67
2023/08/10 02:06:16;;;;;;;0.82;0.70;;;12.60;99.90;;;;;;5068531;28;20454;-67
2023/08/10 02:08:42;;;;;;;1.58;0.82;;;12.50;99.90;;;;;;5067878;28;20123;-67
2023/08/10 02:11:08;;;;;;;0.52;0.40;;;12.50;99.90;;;;;;5055539;28;20108;-67
2023/08/10 02:13:34;;;;;;;2.08;0.80;;;12.40;99.90;;;;;;5031848;28;20102;-67
2023/08/10 02:16:02;;;;;;;3.00;0.60;;;12.30;99.90;;;;;;5048139;28;20056;-67
2023/08/10 02:18:28;;;;;;;1.85;1.00;;;12.30;99.90;;;;;;5048626;28;20056;-67
2023/08/10 02:20:54;;;;;;;3.85;0.90;;;12.30;99.90;;;;;;5049500;28;20441;-67
2023/08/10 02:23:20;;;;;;;2.45;0.95;;;12.30;99.90;;;;;;5047830;28;20041;-67
2023/08/10 02:25:49;;;;;;;0.93;0.50;;;12.20;99.90;;;;;;5049518;28;20064;-67
2023/08/10 02:28:15;;;;;;;1.25;0.70;;;12.20;99.90;;;;;;5048086;28;20075;-67
2023/08/10 02:30:41;;;;;;;0.82;0.43;;;12.10;99.90;;;;;;5038529;28;20386;-67
2023/08/10 02:33:13;;;;;;;0.40;0.30;;;12.10;99.90;;;;;;5031807;28;20047;-67
2023/08/10 02:35:39;;;;;;;1.10;0.40;;;12.00;99.90;;;;;;5048487;28;20052;-67
2023/08/10 02:38:05;;;;;;;0.73;0.60;;;12.00;99.90;;;;;;5047964;28;20041;-67
2023/08/10 02:40:31;;;;;;;4.05;0.63;;;12.00;99.90;;;;;;5049380;28;20098;-67
2023/08/10 02:42:56;;;;;;;0.68;0.50;;;11.90;99.90;;;;;;5049491;28;20110;-67
2023/08/10 02:45:22;;;;;;;0.95;0.65;;;11.90;99.90;;;;;;5048892;28;20566;-66
2023/08/10 02:47:48;;;;;;;0.98;0.60;;;12.00;99.90;;;;;;5049387;28;20041;-67
2023/08/10 02:50:14;;;;;;;0.90;0.60;;;12.00;99.90;;;;;;5048877;28;20052;-67
2023/08/10 02:52:40;;;;;;;1.25;0.57;;;12.00;99.90;;;;;;5032830;28;20083;-67
2023/08/10 02:55:07;;;;;;;1.10;0.65;;;12.00;99.90;;;;;;5026680;28;20062;-67
2023/08/10 02:57:32;;;;;;;0.57;0.40;;;12.00;99.90;;;;;;5028654;28;20045;-67
2023/08/10 02:59:59;;;;;;;0.50;0.30;;;12.00;99.90;;;;;;5052272;28;20115;-67
2023/08/10 03:02:28;;;;;;;0.63;0.50;;;12.00;99.90;;;;;;5069341;28;20059;-67
2023/08/10 03:04:54;;;;;;;1.90;0.93;;;12.10;99.90;;;;;;5068329;28;20041;-67
2023/08/10 03:07:26;;;;;;;1.77;0.50;;;12.10;99.90;;;;;;5070546;28;20084;-67
2023/08/10 03:09:52;;;;;;;1.02;0.60;;;12.10;99.90;;;;;;5066536;28;20433;-67
2023/08/10 03:12:18;;;;;;;1.55;0.75;;;12.20;99.90;;;;;;5049941;28;20125;-67
2023/08/10 03:14:44;;;;;;;2.13;0.90;;;12.30;99.90;;;;;;5050283;28;20041;-67
2023/08/10 03:17:10;;;;;;;0.82;0.50;;;12.30;99.90;;;;;;5032444;28;20041;-67
2023/08/10 03:19:36;;;;;;;1.27;0.68;;;12.30;99.90;;;;;;5049591;28;20045;-67
2023/08/10 03:22:02;;;;;;;1.08;0.80;;;12.30;99.90;;;;;;5050160;28;20041;-67
2023/08/10 03:24:28;;;;;;;2.83;0.75;;;12.40;99.90;;;;;;5049780;28;20072;-67
2023/08/10 03:26:53;;;;;;;1.08;0.52;;;12.40;99.90;;;;;;5031090;28;20073;-67
2023/08/10 03:29:19;;;;;;;0.70;0.50;;;12.40;99.90;;;;;;5029246;28;20049;-67
2023/08/10 03:31:45;;;;;;;1.38;0.80;;;12.50;99.90;;;;;;5049471;28;20077;-67
2023/08/10 03:34:11;;;;;;;3.75;1.15;;;12.50;99.90;;;;;;5052586;28;20102;-67
2023/08/10 03:36:36;;;;;;;1.25;0.60;;;12.60;99.90;;;;;;5054325;28;20440;-67
2023/08/10 03:39:02;;;;;;;4.10;0.45;;;12.60;99.90;;;;;;5052676;28;20044;-67
2023/08/10 03:41:28;;;;;;;4.82;0.57;;;12.60;99.90;;;;;;5035539;28;20052;-67
2023/08/10 03:43:54;;;;;;;1.48;0.70;;;12.70;99.90;;;;;;5053052;28;20060;-67
2023/08/10 03:46:19;;;;;;;2.30;1.13;;;12.70;99.90;;;;;;5052260;28;20496;-67
2023/08/10 03:48:45;;;;;;;1.25;0.70;;;12.70;99.90;;;;;;5052298;28;20117;-67
2023/08/10 03:51:11;;;;;;;1.05;0.80;;;12.70;99.90;;;;;;5053880;28;20549;-67
2023/08/10 03:53:37;;;;;;;1.15;0.60;;;12.80;99.90;;;;;;5051849;28;20063;-68
2023/08/10 03:56:03;;;;;;;0.90;0.68;;;12.80;99.90;;;;;;5039036;28;20057;-67
2023/08/10 03:58:29;;;;;;;2.20;0.73;;;12.90;99.90;;;;;;5016425;28;20073;-67
2023/08/10 04:00:54;;;;;;;1.60;0.77;;;12.90;99.90;;;;;;5070874;28;20124;-67
2023/08/10 04:03:20;;;;;;;1.05;0.73;;;12.90;99.90;;;;;;5073320;28;20041;-68
2023/08/10 04:05:46;;;;;;;2.13;1.00;;;13.00;99.90;;;;;;5071316;28;20037;-67
2023/08/10 04:08:12;;;;;;;0.82;0.60;;;13.00;99.90;;;;;;5051342;28;20040;-67
2023/08/10 04:10:38;;;;;;;1.02;0.55;;;13.00;99.90;;;;;;5053521;28;20094;-67
2023/08/10 04:13:04;;;;;;;1.02;0.68;;;13.00;99.90;;;;;;5052101;28;20052;-67
2023/08/10 04:15:30;;;;;;;1.90;0.80;;;13.10;99.90;;;;;;5051417;28;20048;-68
2023/08/10 04:17:57;;;;;;;1.30;0.80;;;13.10;99.90;;;;;;5053456;28;20090;-67
2023/08/10 04:20:23;;;;;;;1.45;0.82;;;13.10;99.90;;;;;;5051838;28;20087;-67
2023/08/10 04:22:49;;;;;;;3.35;0.98;;;13.20;99.90;;;;;;5036984;28;20045;-68
2023/08/10 04:25:15;;;;;;;1.85;0.60;;;13.20;99.90;;;;;;5033342;28;20053;-68
2023/08/10 04:27:40;;;;;;;2.28;0.98;;;13.20;99.90;;;;;;5033337;28;20037;-68
2023/08/10 04:30:08;;;;;;;2.08;0.70;;;13.30;99.90;;;;;;5036886;28;20111;-67
2023/08/10 04:32:35;;;;;;;1.77;0.80;;;13.30;99.90;;;;;;5073002;28;20373;-68
2023/08/10 04:35:02;;;;;;;1.33;0.60;;;13.30;99.90;;;;;;5071672;28;20055;-68
2023/08/10 04:37:28;;;;;;;2.20;0.60;;;13.40;99.90;;;;;;5058628;28;20052;-68
2023/08/10 04:39:54;;;;;;;1.95;1.00;;;13.40;99.90;;;;;;5034732;28;20374;-67
2023/08/10 04:42:20;;;;;;;1.55;1.00;;;13.40;99.90;;;;;;5051128;28;20120;-68
2023/08/10 04:44:45;;;;;;;2.60;0.85;;;13.40;99.90;;;;;;5051149;28;20124;-68
2023/08/10 04:47:12;;;;;;;1.50;0.63;;;13.50;99.90;;;;;;5034349;28;20037;-68
2023/08/10 04:49:37;;;;;;;1.67;0.77;;;13.50;99.90;;;;;;5050663;28;20047;-67
2023/08/10 04:52:04;;;;;;;1.50;0.73;;;13.60;99.90;;;;;;5052512;28;20044;-67
2023/08/10 04:54:30;;;;;;;1.70;0.77;;;13.60;99.90;;;;;;5051602;28;20056;-67
2023/08/10 04:56:55;;;;;;;1.10;0.65;;;13.60;99.90;;;;;;5030778;28;20041;-67
2023/08/10 04:59:21;;;;;;;1.40;0.65;;;13.60;99.90;;;;;;5045609;28;20120;-67
2023/08/10 05:01:47;;;;;;;1.33;0.50;;;13.70;99.90;;;;;;5070989;28;20076;-67
2023/08/10 05:04:14;;;;;;;1.52;0.50;;;13.70;99.90;;;;;;5071730;28;20052;-67
2023/08/10 05:06:41;;;;;;;5.03;1.27;;;13.80;99.90;;;;;;5064292;28;20048;-67
2023/08/10 05:09:07;;;;;;;1.42;0.85;;;13.80;99.90;;;;;;5052159;28;20496;-67
2023/08/10 05:11:33;;;;;;;1.95;0.70;;;13.90;99.90;;;;;;5044199;28;20042;-68
2023/08/10 05:13:59;;;;;;;4.38;0.57;;;13.90;99.90;;;;;;5032239;28;20072;-68
2023/08/10 05:16:24;;;;;;;1.60;1.00;;;14.00;99.90;;;;;;5032414;28;20041;-68
2023/08/10 05:18:50;;;;;;;6.97;1.05;;;14.00;99.90;;;;;;5022613;28;20049;-67
2023/08/10 05:21:17;;;;;;;1.75;0.68;;;14.10;99.90;;;;;;5038862;28;20047;-68
2023/08/10 05:23:43;;;;;;;5.88;0.90;;;14.10;99.90;;;;;;5054133;28;20041;-68
2023/08/10 05:26:10;;;;;;;1.20;0.65;;;14.10;99.90;;;;;;5069665;28;20051;-68
2023/08/10 05:28:38;;;;;;;2.30;1.20;;;14.20;99.90;;;;;;5051921;28;20041;-68
2023/08/10 05:31:04;;;;;;;1.55;0.70;;;14.30;99.90;;;;;;5050513;28;20480;-68
2023/08/10 05:33:29;;;;;;;1.20;0.75;;;14.30;99.90;;;;;;5049964;28;20041;-68
2023/08/10 05:35:55;;;;;;;3.40;0.80;;;14.40;99.90;;;;;;5051947;28;20045;-68
2023/08/10 05:38:21;;;;;;;1.73;0.80;;;14.40;99.90;;;;;;5050277;28;20059;-68
2023/08/10 05:40:47;;;;;;;1.90;0.80;;;14.50;99.90;;;;;;5050111;28;20083;-68
2023/08/10 05:43:13;;;;;;;2.10;0.90;;;14.50;99.90;;;;;;5033903;28;20045;-68
2023/08/10 05:45:39;;;;;;;1.63;0.90;;;14.50;99.90;;;;;;5049722;28;20041;-68
2023/08/10 05:48:11;;;;;;;1.77;0.63;;;14.60;99.90;;;;;;5051351;28;20033;-68
2023/08/10 05:50:38;;;;;;;1.27;0.80;;;14.70;99.90;;;;;;5050386;28;20048;-68
2023/08/10 05:53:06;;;;;;;2.38;0.90;;;14.70;99.90;;;;;;5050056;28;20045;-68
2023/08/10 05:55:32;;;;;;;0.75;0.50;;;14.80;99.90;;;;;;5042567;28;20146;-68
2023/08/10 05:57:58;;;;;;;3.40;0.90;;;14.90;99.90;;;;;;5031566;28;20389;-68
2023/08/10 06:00:23;;;;;;;3.35;0.60;;;14.90;99.90;;;;;;5059813;28;20183;-68
2023/08/10 06:02:51;;;;;;;1.40;0.70;;;14.90;99.90;;;;;;5071219;28;20032;-68
2023/08/10 06:05:17;;;;;;;1.92;0.82;;;15.00;99.90;;;;;;5071226;28;20047;-67
2023/08/10 06:07:47;;;;;;;1.10;0.60;;;15.00;99.90;;;;;;5052331;28;20578;-67
2023/08/10 06:10:13;;;;;;;;;;;15.10;99.90;;;;;;5050332;28;20051;-68
2023/08/10 06:12:39;;;;;;;1.75;1.17;;;15.10;99.90;;;;;;5050071;28;19928;-68
2023/08/10 06:15:05;;;;;;;1.35;0.65;;;15.20;99.90;;;;;;5038417;28;20042;-68
2023/08/10 06:17:31;;;;;;;1.02;0.50;;;15.30;99.90;;;;;;5013505;28;20048;-68
2023/08/10 06:19:57;;;;;;;1.60;0.47;;;15.30;99.90;;;;;;5031122;28;20050;-68
2023/08/10 06:22:24;;;;;;;0.93;0.75;;;15.30;99.90;;;;;;5029447;28;20099;-68
2023/08/10 06:24:50;;;;;;;1.83;0.80;;;15.40;99.90;;;;;;5029873;28;20047;-68
2023/08/10 06:27:15;;;;;;;0.85;0.32;;;15.40;99.90;;;;;;5040039;28;20036;-68
2023/08/10 06:29:50;;;;;;;2.83;0.60;;;15.50;99.90;;;;;;5050504;28;20049;-68
2023/08/10 06:32:16;;;;;;;0.80;0.52;;;15.60;99.90;;;;;;5049640;28;20037;-69
2023/08/10 06:34:42;;;;;;;1.05;0.52;;;15.60;99.90;;;;;;5050218;28;20045;-68
2023/08/10 06:37:10;;;;;;;3.53;0.80;;;15.60;99.90;;;;;;5050857;28;20044;-68
2023/08/10 06:39:35;;;;;;;1.15;0.60;;;15.70;99.90;;;;;;5050771;28;20033;-68
2023/08/10 06:42:02;;;;;;;0.73;0.40;;;15.70;99.90;;;;;;5048730;28;20401;-68
2023/08/10 06:44:29;;;;;;;1.45;0.75;;;15.70;99.90;;;;;;5049787;28;20040;-68
2023/08/10 06:46:54;;;;;;;1.00;0.50;;;15.80;99.90;;;;;;5048775;28;20073;-69
2023/08/10 06:49:21;;;;;;;1.85;0.40;;;15.90;99.90;;;;;;5047265;28;20061;-68
2023/08/10 06:51:49;;;;;;;0.63;0.47;;;16.00;99.90;;;;;;5050285;28;20047;-68
2023/08/10 06:54:15;;;;;;;0.85;0.50;;;16.00;99.90;;;;;;5049688;28;20061;-69
2023/08/10 06:56:40;;;;;;;2.55;0.82;;;16.10;99.90;;;;;;5031212;28;20048;-68
2023/08/10 06:59:07;;;;;;;2.72;0.40;;;16.20;99.90;;;;;;5037576;28;20045;-68
2023/08/10 07:01:34;;;;;;;0.50;0.30;;;16.20;99.90;;;;;;5068981;28;20055;-68
2023/08/10 07:04:02;;;;;;;1.17;0.45;;;16.30;99.90;;;;;;5051231;28;20041;-68
2023/08/10 07:06:28;;;;;;;2.30;0.77;;;16.30;99.90;;;;;;5048445;28;20084;-69
2023/08/10 07:08:54;;;;;;;2.15;0.60;;;16.40;99.90;;;;;;5032021;28;20588;-69
2023/08/10 07:11:21;;;;;;;0.98;0.52;;;16.50;99.90;;;;;;5038843;28;20080;-69
2023/08/10 07:13:46;;;;;;;2.58;0.35;;;16.50;99.90;;;;;;5012502;28;20049;-68
2023/08/10 07:16:13;;;;;;;0.70;0.45;;;16.60;99.90;;;;;;5028432;28;20049;-69
2023/08/10 07:18:38;;;;;;;1.40;0.75;;;16.60;99.90;;;;;;5029014;28;20060;-69
2023/08/10 07:21:04;;;;;;;0.50;0.30;;;16.60;99.90;;;;;;5030234;28;20477;-68
2023/08/10 07:23:30;;;;;;;0.85;0.50;;;16.70;99.90;;;;;;5029665;28;20046;-68
2023/08/10 07:25:56;;;;;;;1.08;0.43;;;16.80;99.90;;;;;;5030085;28;20044;-68
2023/08/10 07:28:26;;;;;;;0.60;0.35;;;16.90;99.90;;;;;;5067850;28;20400;-68
2023/08/10 07:30:53;;;;;;;0.38;0.38;;;17.10;99.90;;;;;;5069667;28;20088;-69
2023/08/10 07:33:19;;;;;;;1.75;0.80;;;17.20;99.90;;;;;;5056797;28;20102;-69
2023/08/10 07:35:45;;;;;;;0.70;0.43;;;17.30;99.90;;;;;;5048762;28;20037;-69
2023/08/10 07:38:12;;;;;;;0.45;0.30;;;17.40;99.90;;;;;;5049440;28;20052;-70
2023/08/10 07:40:38;;;;;;;0.52;0.30;;;17.40;99.90;;;;;;5048533;28;20497;-70
2023/08/10 07:43:04;;;;;;;0.40;0.30;;;17.40;99.90;;;;;;5050038;28;20029;-69
2023/08/10 07:45:30;;;;;;;0.57;0.50;;;17.50;99.90;;;;;;5048905;28;20120;-70
2023/08/10 07:47:55;;;;;;;0.73;0.38;;;17.70;99.90;;;;;;5049382;28;20064;-69
2023/08/10 07:50:21;;;;;;;1.27;0.52;;;17.80;99.90;;;;;;5048548;28;20052;-70
2023/08/10 07:52:47;;;;;;;3.10;0.45;;;17.90;99.90;;;;;;5030384;28;20057;-68
2023/08/10 07:55:13;;;;;;;1.65;0.43;;;18.00;99.90;;;;;;5028629;28;20671;-69
2023/08/10 07:57:42;;;;;;;1.50;0.50;;;18.20;99.90;;;;;;5030047;28;20037;-70
2023/08/10 08:00:10;;;;;;;1.63;0.43;;;18.20;99.90;;;;;;5055116;28;20100;-70
2023/08/10 08:02:36;;;;;;;1.13;0.40;;;18.30;99.90;;;;;;5063098;28;20108;-70
2023/08/10 08:05:03;;;;;;;1.75;0.70;;;18.40;99.90;;;;;;5049602;28;20386;-69
2023/08/10 08:07:32;;;;;;;1.40;0.55;;;18.60;99.90;;;;;;5048044;28;20081;-70
2023/08/10 08:09:59;;;;;;;1.17;0.60;;;18.80;99.90;;;;;;5048316;28;20099;-69
2023/08/10 08:12:26;;;;;;;1.23;0.50;;;18.90;99.90;;;;;;5036124;28;20128;-70
2023/08/10 08:14:55;;;;;;;2.28;0.47;;;18.90;99.90;;;;;;5029666;28;20417;-69
2023/08/10 08:17:22;;;;;;;1.90;0.20;;;18.90;99.90;;;;;;5033607;28;20103;-70
2023/08/10 08:19:48;;;;;;;1.98;0.40;;;18.80;99.90;;;;;;5051504;28;20044;-70
2023/08/10 08:22:14;;;;;;;1.45;0.30;;;18.70;99.90;;;;;;5053160;28;20049;-69
2023/08/10 08:24:41;;;;;;;0.55;0.30;;;18.70;99.90;;;;;;5051926;28;20044;-69
2023/08/10 08:27:06;;;;;;;1.42;0.50;;;18.70;99.90;;;;;;5051404;28;20175;-69
2023/08/10 08:29:34;;;;;;;0.88;0.30;;;18.70;99.90;;;;;;5051848;28;20123;-69
2023/08/10 08:32:00;;;;;;;0.40;0.30;;;18.70;99.90;;;;;;5053271;28;20045;-69
2023/08/10 08:34:26;;;;;;;0.45;0.20;;;18.70;99.90;;;;;;5051332;28;20052;-69
2023/08/10 08:36:51;;;;;;;0.95;0.40;;;18.70;99.90;;;;;;5053050;28;20052;-69
2023/08/10 08:39:17;;;;;;;1.02;0.30;;;18.70;99.90;;;;;;5051809;28;20077;-69
2023/08/10 08:41:45;;;;;;;1.77;0.65;;;18.90;99.90;;;;;;5052374;28;20467;-69
2023/08/10 08:44:13;;;;;;;0.88;0.40;;;19.00;99.90;;;;;;5051906;28;20041;-68
2023/08/10 08:46:42;;;;;;;1.90;0.40;;;19.10;99.90;;;;;;5051424;28;20377;-69
2023/08/10 08:49:09;;;;;;;1.08;0.35;;;19.10;99.90;;;;;;5031939;28;20048;-69
2023/08/10 08:51:36;;;;;;;0.63;0.38;;;19.10;99.90;;;;;;5031498;28;20033;-69
2023/08/10 08:54:02;;;;;;;1.05;0.20;;;19.10;99.90;;;;;;5047605;28;20136;-69
2023/08/10 08:56:28;;;;;;;0.20;0.20;;;19.10;99.90;;;;;;5050627;28;20060;-69
2023/08/10 08:58:54;;;;;;;0.60;0.20;;;19.10;99.90;;;;;;5053370;28;20082;-70
2023/08/10 09:01:21;;;;;;;1.50;0.57;;;19.00;99.90;;;;;;5055872;28;20473;-70
2023/08/10 09:03:48;;;;;;;2.38;0.47;;;18.90;99.90;;;;;;5056748;28;20048;-69
2023/08/10 09:06:14;;;;;;;1.17;0.60;;;18.90;99.90;;;;;;5050109;28;20049;-69
2023/08/10 09:08:41;;;;;;;1.67;0.60;;;18.90;99.90;;;;;;5050452;28;20068;-69
2023/08/10 09:11:07;;;;;;;2.63;0.40;;;19.10;99.90;;;;;;5041842;28;20110;-69
2023/08/10 09:13:34;;;;;;;0.82;0.43;;;19.30;99.90;;;;;;5031040;28;20478;-70
2023/08/10 09:16:11;;;;;;;0.95;0.40;;;19.40;99.90;;;;;;5030622;28;20049;-69
2023/08/10 09:18:43;;;;;;;9.68;0.60;;;19.40;99.90;;;;;;5031015;28;20049;-69
2023/08/10 09:21:15;;;;;;;0.88;0.43;;;19.40;99.90;;;;;;5032188;28;20041;-69
2023/08/10 09:23:42;;;;;;;2.00;0.75;;;19.30;99.90;;;;;;5041151;28;20045;-70
2023/08/10 09:26:10;;;;;;;0.82;0.30;;;19.20;99.90;;;;;;5051919;28;20478;-70
2023/08/10 09:28:37;;;;;;;0.93;0.40;;;19.20;99.90;;;;;;5049813;28;20045;-70
2023/08/10 09:31:04;;;;;;;6.78;0.43;;;19.10;99.90;;;;;;5049921;28;20122;-69
2023/08/10 09:33:33;;;;;;;0.60;0.40;;;19.10;99.90;;;;;;5051800;28;20041;-69
2023/08/10 09:36:00;;;;;;;1.55;0.50;;;19.20;99.90;;;;;;5050071;28;20492;-70
2023/08/10 09:38:26;;;;;;;0.60;0.35;;;19.20;99.90;;;;;;5049794;28;20051;-70
2023/08/10 09:41:14;;;;;;;0.40;0.30;;;19.30;99.90;;;;;;5051476;28;20087;-69
2023/08/10 09:43:42;;;;;;;0.45;0.20;;;19.40;99.90;;;;;;5053105;28;20033;-69
2023/08/10 09:46:10;;;;;;;0.70;0.28;;;19.40;99.90;;;;;;5030360;28;20079;-69
2023/08/10 09:48:37;;;;;;;1.20;0.25;;;19.40;99.90;;;;;;5044107;28;20443;-68
2023/08/10 09:51:05;;;;;;;1.27;0.50;;;19.40;99.90;;;;;;5049688;28;20168;-69
2023/08/10 09:53:32;;;;;;;0.45;0.30;;;19.40;99.90;;;;;;5051232;28;20067;-69
2023/08/10 09:55:58;;;;;;;1.35;0.57;;;19.30;99.90;;;;;;5051312;28;20113;-69
2023/08/10 09:58:25;;;;;;;2.42;0.68;;;19.30;99.90;;;;;;5049379;28;20082;-70
2023/08/10 10:00:51;;;;;;;0.50;0.20;;;19.30;99.90;;;;;;5068757;28;20131;-69
2023/08/10 10:03:18;;;;;;;0.73;0.60;;;19.30;99.90;;;;;;5069861;28;20044;-69
2023/08/10 10:05:44;;;;;;;1.00;0.30;;;19.30;99.90;;;;;;5032593;28;20037;-69
2023/08/10 10:08:14;;;;;;;1.48;0.50;;;19.40;99.90;;;;;;5050096;28;20099;-70
2023/08/10 10:10:42;;;;;;;0.70;0.40;;;19.40;99.90;;;;;;5043041;28;20549;-69
2023/08/10 10:13:12;;;;;;;0.47;0.30;;;19.40;99.90;;;;;;5029637;28;20124;-70
2023/08/10 10:15:40;;;;;;;1.02;0.30;;;19.50;99.90;;;;;;5043976;28;20044;-69
2023/08/10 10:18:08;;;;;;;2.55;0.28;;;19.70;99.90;;;;;;5048059;28;20045;-69
2023/08/10 10:20:41;;;;;;;0.70;0.38;;;19.70;99.90;;;;;;5043436;28;20051;-69
2023/08/10 10:23:20;;;;;;;1.90;0.75;;;19.90;99.90;;;;;;5051628;28;20080;-69
2023/08/10 10:26:08;;;;;;;1.80;0.50;;;20.00;99.90;;;;;;5025484;28;20055;-70
2023/08/10 10:28:34;;;;;;;2.50;0.30;;;20.00;99.90;;;;;;5048907;28;20052;-69
2023/08/10 10:31:09;;;;;;;1.92;0.40;;;20.10;99.90;;;;;;5050065;28;20493;-70
2023/08/10 10:33:38;;;;;;;1.13;0.57;;;20.20;99.90;;;;;;5046463;28;20439;-70
2023/08/10 10:36:18;;;;;;;1.08;0.60;;;20.30;99.90;;;;;;5049465;28;20076;-69
2023/08/10 10:38:49;;;;;;;1.25;0.70;;;20.40;99.90;;;;;;5049012;28;20045;-69
2023/08/10 10:41:29;;;;;;;1.48;0.60;;;20.50;99.90;;;;;;5045349;28;20041;-70
2023/08/10 10:43:58;;;;;;;2.75;0.93;;;20.60;99.90;;;;;;5049154;28;20041;-70
2023/08/10 10:46:33;;;;;;;1.17;0.50;;;20.60;99.90;;;;;;5049655;28;20121;-70
2023/08/10 10:48:59;;;;;;;2.53;0.90;;;20.60;99.90;;;;;;5046982;28;20048;-70
2023/08/10 10:51:28;;;;;;;2.30;0.60;;;20.70;99.90;;;;;;5050179;28;20051;-70
2023/08/10 10:53:54;;;;;;;5.13;0.80;;;20.70;99.90;;;;;;5048003;28;20052;-69
2023/08/10 10:56:20;;;;;;;0.60;0.43;;;20.90;99.90;;;;;;5050079;28;20122;-69
2023/08/10 10:58:50;;;;;;;3.17;0.75;;;21.00;99.90;;;;;;5050366;28;20062;-69
2023/08/10 11:01:19;;;;;;;1.15;0.55;;;21.00;99.90;;;;;;5049654;28;20046;-69
2023/08/10 11:03:52;;;;;;;;;;;21.00;99.90;;;;;;5049469;28;20041;-69
2023/08/10 11:06:20;;;;;;;0.82;0.32;;;21.00;99.90;;;;;;5048689;28;19917;-70
2023/08/10 11:08:55;;;;;;;3.75;0.65;;;20.90;99.90;;;;;;5047396;28;20037;-69
2023/08/10 11:11:22;;;;;;;1.10;0.50;;;20.90;99.90;;;;;;5047761;28;20128;-70
2023/08/10 11:13:48;;;;;;;1.70;0.93;;;20.90;99.90;;;;;;5049001;28;20044;-69
2023/08/10 11:16:15;;;;;;;1.35;0.70;;;20.80;99.90;;;;;;5048629;28;20123;-70
2023/08/10 11:18:50;;;;;;;1.73;0.63;;;20.70;99.90;;;;;;5047550;28;20053;-70
2023/08/10 11:21:20;;;;;;;2.03;0.88;;;20.70;99.90;;;;;;5048371;28;20189;-70
2023/08/10 11:23:46;;;;;;;2.92;0.60;;;20.60;99.90;;;;;;5048531;28;20041;-69
2023/08/10 11:26:13;;;;;;;4.93;0.80;;;20.50;99.90;;;;;;5050149;28;20043;-70
2023/08/10 11:28:40;;;;;;;1.40;0.63;;;20.50;99.90;;;;;;5049176;28;20359;-70
2023/08/10 11:31:09;;;;;;;2.22;0.95;;;20.50;99.90;;;;;;5031985;28;20048;-70
2023/08/10 11:33:40;;;;;;;0.88;0.40;;;20.60;99.90;;;;;;5048535;28;20084;-70
2023/08/10 11:36:12;;;;;;;1.70;0.85;;;20.80;99.90;;;;;;5047944;28;20041;-69
2023/08/10 11:38:46;;;;;;;2.75;1.08;;;21.20;99.90;;;;;;5048600;28;20430;-70
2023/08/10 11:41:13;;;;;;;4.13;0.60;;;21.50;99.90;;;;;;5048111;28;20041;-69
2023/08/10 11:43:41;;;;;;;1.75;0.82;;;21.70;99.90;;;;;;5046624;28;20370;-70
2023/08/10 11:46:09;;;;;;;1.83;0.80;;;21.80;99.90;;;;;;5048635;28;20458;-70
2023/08/10 11:48:35;;;;;;;3.92;0.93;;;21.90;99.90;;;;;;5048267;28;20041;-70
2023/08/10 11:51:02;;;;;;;4.32;0.93;;;22.00;99.90;;;;;;5046858;28;20053;-69
2023/08/10 11:53:36;;;;;;;1.58;0.77;;;22.10;99.90;;;;;;5052179;28;20390;-70
2023/08/10 11:56:08;;;;;;;2.35;1.17;;;22.20;99.90;;;;;;5035505;28;20509;-70
2023/08/10 11:58:39;;;;;;;4.32;1.15;;;22.20;99.90;;;;;;5055206;28;20029;-70
2023/08/10 12:01:06;;;;;;;1.40;0.68;;;22.30;99.90;;;;;;5072788;28;20439;-70
2023/08/10 12:03:35;;;;;;;2.13;0.85;;;22.40;99.90;;;;;;5070991;28;20471;-69
2023/08/10 12:06:06;;;;;;;1.37;0.70;;;22.40;99.90;;;;;;5066401;28;20041;-69
2023/08/10 12:08:35;;;;;;;1.95;1.08;;;22.60;99.90;;;;;;5051323;28;20493;-71
2023/08/10 12:11:09;;;;;;;1.52;1.13;;;22.70;99.90;;;;;;5041958;28;20685;-69
2023/08/10 12:13:49;;;;;;;2.00;1.00;;;22.60;99.90;;;;;;5032777;28;20037;-70
2023/08/10 12:16:20;;;;;;;1.98;1.08;;;22.60;99.90;;;;;;5032886;28;20466;-69
2023/08/10 12:18:46;;;;;;;1.73;1.10;;;22.70;99.90;;;;;;5015824;28;20052;-70
2023/08/10 12:21:13;;;;;;;1.75;1.02;;;22.70;99.90;;;;;;5051621;28;20048;-69
2023/08/10 12:23:39;;;;;;;1.75;0.82;;;22.80;99.90;;;;;;5052756;28;20040;-70
2023/08/10 12:26:04;;;;;;;2.55;1.02;;;22.80;99.90;;;;;;5052189;28;20388;-68
2023/08/10 12:28:30;;;;;;;2.95;1.10;;;22.80;99.90;;;;;;5051767;28;20041;-69
2023/08/10 12:30:56;;;;;;;3.00;1.20;;;22.60;99.90;;;;;;5051288;28;20099;-70
2023/08/10 12:33:23;;;;;;;3.08;1.02;;;22.50;99.90;;;;;;5038831;28;20061;-69
2023/08/10 12:35:50;;;;;;;7.57;1.25;;;22.40;99.90;;;;;;5032635;28;20417;-70
2023/08/10 12:38:17;;;;;;;2.85;1.42;;;22.30;99.90;;;;;;5031968;28;20045;-69
2023/08/10 12:40:43;;;;;;;1.92;1.10;;;22.30;99.90;;;;;;5065791;28;20048;-69
2023/08/10 12:43:09;;;;;;;3.35;0.80;;;22.20;99.90;;;;;;5071300;28;20043;-69
2023/08/10 12:45:34;;;;;;;2.53;1.02;;;22.30;99.90;;;;;;5060637;28;20048;-69
2023/08/10 12:48:00;;;;;;;2.92;1.35;;;22.30;99.90;;;;;;5051034;28;20047;-70